Terminal Aerodrome Forecast
Issued by NWS

Home | Current Version | Previous Version | Text Only | Print | Product List | Glossary On
Versions: 1 2 3 4 5 6 7 8 9 10 11 12 13 14 15
000
FTUS44 KCRP 172300 RRA
TAFALI
TAF
KALI 172345Z 1800/1824 13008KT P6SM SCT035 BKN045
     FM180500 14005KT 3SM BR BKN015
      TEMPO 1809/1813 1SM BR BKN005
     FM181500 VRB04KT P6SM VCSH FEW008 BKN025
     FM181800 17008KT P6SM BKN035
      TEMPO 1818/1822 -TSRA BKN025CB=

USA.gov is the U.S. government's official web portal to all federal, state and local government web resources and services.